sensor_id;sensor_type;location;lat;lon;timestamp;temperature;humidity
47514;DHT22;33951;51.988;5.910;2023-11-21T00:00:44;9.70;99.90
47514;DHT22;33951;51.988;5.910;2023-11-21T08:39:39;10.50;99.90
47514;DHT22;33951;51.988;5.910;2023-11-21T08:42:07;10.70;99.90
47514;DHT22;33951;51.988;5.910;2023-11-21T08:44:39;10.60;99.90
47514;DHT22;33951;51.988;5.910;2023-11-21T08:47:05;10.60;99.90
47514;DHT22;33951;51.988;5.910;2023-11-21T08:49:31;10.70;99.90
47514;DHT22;33951;51.988;5.910;2023-11-21T09:35:52;11.50;99.90
47514;DHT22;33951;51.988;5.910;2023-11-21T09:52:35;11.70;99.90
47514;DHT22;33951;51.988;5.910;2023-11-21T10:01:38;11.70;99.90
47514;DHT22;33951;51.988;5.910;2023-11-21T10:04:09;11.70;99.90
47514;DHT22;33951;51.988;5.910;2023-11-21T10:06:41;11.60;99.90
47514;DHT22;33951;51.988;5.910;2023-11-21T10:09:35;11.80;99.90
47514;DHT22;33951;51.988;5.910;2023-11-21T10:12:29;11.80;99.90
47514;DHT22;33951;51.988;5.910;2023-11-21T10:15:08;12.00;99.90
47514;DHT22;33951;51.988;5.910;2023-11-21T10:17:38;12.10;99.90
47514;DHT22;33951;51.988;5.910;2023-11-21T10:20:10;12.10;99.90
47514;DHT22;33951;51.988;5.910;2023-11-21T10:22:40;12.00;99.90
47514;DHT22;33951;51.988;5.910;2023-11-21T10:25:13;12.00;99.90
47514;DHT22;33951;51.988;5.910;2023-11-21T10:27:42;12.00;99.90
47514;DHT22;33951;51.988;5.910;2023-11-21T10:30:09;12.00;99.90
47514;DHT22;33951;51.988;5.910;2023-11-21T10:32:41;12.20;99.90
47514;DHT22;33951;51.988;5.910;2023-11-21T10:35:10;12.40;99.90
47514;DHT22;33951;51.988;5.910;2023-11-21T10:37:43;12.40;99.90
47514;DHT22;33951;51.988;5.910;2023-11-21T10:40:12;12.30;99.90
47514;DHT22;33951;51.988;5.910;2023-11-21T10:42:38;12.50;99.90
47514;DHT22;33951;51.988;5.910;2023-11-21T10:45:08;12.60;99.90
47514;DHT22;33951;51.988;5.910;2023-11-21T10:47:44;12.60;99.90
47514;DHT22;33951;51.988;5.910;2023-11-21T10:50:10;12.70;99.90
47514;DHT22;33951;51.988;5.910;2023-11-21T10:52:40;12.50;99.90
47514;DHT22;33951;51.988;5.910;2023-11-21T10:55:20;12.40;99.90
47514;DHT22;33951;51.988;5.910;2023-11-21T10:57:55;12.40;99.90
47514;DHT22;33951;51.988;5.910;2023-11-21T11:00:24;12.30;99.90
47514;DHT22;33951;51.988;5.910;2023-11-21T11:02:53;12.40;99.90
47514;DHT22;33951;51.988;5.910;2023-11-21T11:05:23;12.30;99.90
47514;DHT22;33951;51.988;5.910;2023-11-21T11:07:56;12.30;99.90
47514;DHT22;33951;51.988;5.910;2023-11-21T11:10:31;12.10;99.90
47514;DHT22;33951;51.988;5.910;2023-11-21T11:12:57;12.10;99.90
47514;DHT22;33951;51.988;5.910;2023-11-21T11:15:25;12.00;99.90
47514;DHT22;33951;51.988;5.910;2023-11-21T11:17:51;12.10;99.90
47514;DHT22;33951;51.988;5.910;2023-11-21T11:20:17;12.20;99.90
47514;DHT22;33951;51.988;5.910;2023-11-21T11:28:26;11.80;99.90
47514;DHT22;33951;51.988;5.910;2023-11-21T11:31:31;11.70;99.90
47514;DHT22;33951;51.988;5.910;2023-11-21T11:37:02;11.60;99.90
47514;DHT22;33951;51.988;5.910;2023-11-21T11:41:56;11.70;99.90
47514;DHT22;33951;51.988;5.910;2023-11-21T11:47:27;11.80;99.90
47514;DHT22;33951;51.988;5.910;2023-11-21T11:50:06;12.00;99.90
47514;DHT22;33951;51.988;5.910;2023-11-21T11:52:44;11.90;99.90
47514;DHT22;33951;51.988;5.910;2023-11-21T11:55:14;11.90;99.90
47514;DHT22;33951;51.988;5.910;2023-11-21T11:57:41;12.00;99.90
47514;DHT22;33951;51.988;5.910;2023-11-21T12:00:20;12.10;99.90
47514;DHT22;33951;51.988;5.910;2023-11-21T12:02:54;12.30;99.90
47514;DHT22;33951;51.988;5.910;2023-11-21T12:05:23;12.20;99.90
47514;DHT22;33951;51.988;5.910;2023-11-21T12:07:52;12.20;99.90
47514;DHT22;33951;51.988;5.910;2023-11-21T12:10:23;12.20;99.90
47514;DHT22;33951;51.988;5.910;2023-11-21T12:13:01;12.20;99.90
47514;DHT22;33951;51.988;5.910;2023-11-21T12:15:27;12.20;99.90
47514;DHT22;33951;51.988;5.910;2023-11-21T12:17:57;12.10;99.90
47514;DHT22;33951;51.988;5.910;2023-11-21T12:20:26;12.10;99.90
47514;DHT22;33951;51.988;5.910;2023-11-21T12:22:54;11.90;99.90
47514;DHT22;33951;51.988;5.910;2023-11-21T12:25:24;11.90;99.90
47514;DHT22;33951;51.988;5.910;2023-11-21T12:27:52;11.80;99.90
47514;DHT22;33951;51.988;5.910;2023-11-21T12:30:22;11.80;99.90
47514;DHT22;33951;51.988;5.910;2023-11-21T12:32:52;11.70;99.90
47514;DHT22;33951;51.988;5.910;2023-11-21T12:35:19;11.60;99.90
47514;DHT22;33951;51.988;5.910;2023-11-21T12:37:47;11.60;99.90
47514;DHT22;33951;51.988;5.910;2023-11-21T12:40:13;11.60;99.90
47514;DHT22;33951;51.988;5.910;2023-11-21T12:42:47;11.50;99.90
47514;DHT22;33951;51.988;5.910;2023-11-21T12:47:59;11.60;99.90
47514;DHT22;33951;51.988;5.910;2023-11-21T12:50:27;11.80;99.90
47514;DHT22;33951;51.988;5.910;2023-11-21T12:53:01;11.80;99.90
47514;DHT22;33951;51.988;5.910;2023-11-21T12:55:33;11.80;99.90
47514;DHT22;33951;51.988;5.910;2023-11-21T12:58:04;11.70;99.90
47514;DHT22;33951;51.988;5.910;2023-11-21T13:03:05;11.80;99.90
47514;DHT22;33951;51.988;5.910;2023-11-21T13:05:34;11.90;99.90
47514;DHT22;33951;51.988;5.910;2023-11-21T13:08:02;11.90;99.90
47514;DHT22;33951;51.988;5.910;2023-11-21T13:10:31;11.80;99.90
47514;DHT22;33951;51.988;5.910;2023-11-21T13:12:58;11.90;99.90
47514;DHT22;33951;51.988;5.910;2023-11-21T13:15:26;11.80;99.90
47514;DHT22;33951;51.988;5.910;2023-11-21T13:17:52;11.70;99.90
47514;DHT22;33951;51.988;5.910;2023-11-21T13:20:21;11.60;99.90
47514;DHT22;33951;51.988;5.910;2023-11-21T13:25:17;11.70;99.90
47514;DHT22;33951;51.988;5.910;2023-11-21T13:27:44;11.70;99.90
47514;DHT22;33951;51.988;5.910;2023-11-21T13:30:14;11.70;99.90
47514;DHT22;33951;51.988;5.910;2023-11-21T13:32:42;11.60;99.90
47514;DHT22;33951;51.988;5.910;2023-11-21T13:35:08;11.70;99.90
47514;DHT22;33951;51.988;5.910;2023-11-21T13:37:50;11.70;99.90
47514;DHT22;33951;51.988;5.910;2023-11-21T13:40:19;11.70;99.90
47514;DHT22;33951;51.988;5.910;2023-11-21T13:42:48;11.80;99.90
47514;DHT22;33951;51.988;5.910;2023-11-21T13:45:14;11.80;99.90
47514;DHT22;33951;51.988;5.910;2023-11-21T13:47:39;11.80;99.90
47514;DHT22;33951;51.988;5.910;2023-11-21T13:50:05;11.90;99.90
47514;DHT22;33951;51.988;5.910;2023-11-21T13:52:39;11.90;99.90
47514;DHT22;33951;51.988;5.910;2023-11-21T13:55:05;11.90;99.90
47514;DHT22;33951;51.988;5.910;2023-11-21T13:57:33;11.90;99.90
47514;DHT22;33951;51.988;5.910;2023-11-21T13:59:58;11.70;99.90
47514;DHT22;33951;51.988;5.910;2023-11-21T14:02:26;11.50;99.90
47514;DHT22;33951;51.988;5.910;2023-11-21T14:04:59;11.50;99.90
47514;DHT22;33951;51.988;5.910;2023-11-21T14:07:30;11.40;99.90
47514;DHT22;33951;51.988;5.910;2023-11-21T14:10:02;11.40;99.90
47514;DHT22;33951;51.988;5.910;2023-11-21T14:12:29;11.20;99.90
47514;DHT22;33951;51.988;5.910;2023-11-21T14:14:55;11.10;99.90
47514;DHT22;33951;51.988;5.910;2023-11-21T14:17:20;11.00;99.90
47514;DHT22;33951;51.988;5.910;2023-11-21T14:19:49;11.00;99.90
47514;DHT22;33951;51.988;5.910;2023-11-21T14:22:20;11.10;99.90
47514;DHT22;33951;51.988;5.910;2023-11-21T14:24:46;11.00;99.90
47514;DHT22;33951;51.988;5.910;2023-11-21T14:27:14;11.00;99.90
47514;DHT22;33951;51.988;5.910;2023-11-21T14:29:40;11.00;99.90
47514;DHT22;33951;51.988;5.910;2023-11-21T14:32:09;11.00;99.90
47514;DHT22;33951;51.988;5.910;2023-11-21T14:34:34;11.00;99.90
47514;DHT22;33951;51.988;5.910;2023-11-21T14:37:00;11.10;99.90
47514;DHT22;33951;51.988;5.910;2023-11-21T14:39:30;11.10;99.90
47514;DHT22;33951;51.988;5.910;2023-11-21T14:42:02;11.00;99.90
47514;DHT22;33951;51.988;5.910;2023-11-21T14:44:28;11.00;99.90
47514;DHT22;33951;51.988;5.910;2023-11-21T14:47:00;11.00;99.90
47514;DHT22;33951;51.988;5.910;2023-11-21T14:49:33;10.90;99.90
47514;DHT22;33951;51.988;5.910;2023-11-21T14:52:15;11.00;99.90
47514;DHT22;33951;51.988;5.910;2023-11-21T14:55:00;10.90;99.90
47514;DHT22;33951;51.988;5.910;2023-11-21T14:57:51;10.80;99.90
47514;DHT22;33951;51.988;5.910;2023-11-21T15:00:44;10.70;99.90
47514;DHT22;33951;51.988;5.910;2023-11-21T15:03:52;10.80;99.90
47514;DHT22;33951;51.988;5.910;2023-11-21T15:06:40;10.70;99.90
47514;DHT22;33951;51.988;5.910;2023-11-21T15:09:08;10.60;99.90
47514;DHT22;33951;51.988;5.910;2023-11-21T15:11:37;10.60;99.90
47514;DHT22;33951;51.988;5.910;2023-11-21T15:14:32;10.50;99.90
47514;DHT22;33951;51.988;5.910;2023-11-21T15:17:00;10.20;99.90
47514;DHT22;33951;51.988;5.910;2023-11-21T15:19:28;10.20;99.90
47514;DHT22;33951;51.988;5.910;2023-11-21T15:21:54;10.20;99.90
47514;DHT22;33951;51.988;5.910;2023-11-21T15:24:22;10.20;99.90
47514;DHT22;33951;51.988;5.910;2023-11-21T15:26:48;10.10;99.90
47514;DHT22;33951;51.988;5.910;2023-11-21T15:29:16;10.30;99.90
47514;DHT22;33951;51.988;5.910;2023-11-21T15:31:42;10.20;99.90
47514;DHT22;33951;51.988;5.910;2023-11-21T15:34:13;10.20;99.90
47514;DHT22;33951;51.988;5.910;2023-11-21T15:36:41;10.20;99.90
47514;DHT22;33951;51.988;5.910;2023-11-21T15:39:22;10.10;99.90
47514;DHT22;33951;51.988;5.910;2023-11-21T15:41:51;10.30;99.90
47514;DHT22;33951;51.988;5.910;2023-11-21T15:44:16;10.30;99.90
47514;DHT22;33951;51.988;5.910;2023-11-21T15:47:02;10.10;99.90
47514;DHT22;33951;51.988;5.910;2023-11-21T15:49:33;10.00;99.90
47514;DHT22;33951;51.988;5.910;2023-11-21T15:52:07;9.90;99.90
47514;DHT22;33951;51.988;5.910;2023-11-21T15:54:35;9.90;99.90
47514;DHT22;33951;51.988;5.910;2023-11-21T15:57:02;9.80;99.90
47514;DHT22;33951;51.988;5.910;2023-11-21T15:59:29;9.80;99.90
47514;DHT22;33951;51.988;5.910;2023-11-21T17:37:06;7.80;99.90
47514;DHT22;33951;51.988;5.910;2023-11-21T17:39:32;7.70;99.90
47514;DHT22;33951;51.988;5.910;2023-11-21T17:42:00;7.60;99.90
47514;DHT22;33951;51.988;5.910;2023-11-21T17:44:26;7.80;99.90
47514;DHT22;33951;51.988;5.910;2023-11-21T17:46:52;7.70;99.90
47514;DHT22;33951;51.988;5.910;2023-11-21T17:49:18;7.80;99.90
47514;DHT22;33951;51.988;5.910;2023-11-21T17:51:43;7.90;99.90
47514;DHT22;33951;51.988;5.910;2023-11-21T17:54:09;7.90;99.90
47514;DHT22;33951;51.988;5.910;2023-11-21T17:56:34;8.00;99.90
47514;DHT22;33951;51.988;5.910;2023-11-21T17:59:03;8.00;99.90
47514;DHT22;33951;51.988;5.910;2023-11-21T18:01:38;8.00;99.90
47514;DHT22;33951;51.988;5.910;2023-11-21T18:04:04;8.10;99.90
47514;DHT22;33951;51.988;5.910;2023-11-21T18:06:31;8.10;99.90
47514;DHT22;33951;51.988;5.910;2023-11-21T18:08:59;8.10;99.90
47514;DHT22;33951;51.988;5.910;2023-11-21T18:11:27;8.20;99.90
47514;DHT22;33951;51.988;5.910;2023-11-21T18:13:57;8.20;99.90
47514;DHT22;33951;51.988;5.910;2023-11-21T18:16:31;8.30;99.90
47514;DHT22;33951;51.988;5.910;2023-11-21T18:18:59;8.30;99.90
47514;DHT22;33951;51.988;5.910;2023-11-21T18:21:25;8.20;99.90
47514;DHT22;33951;51.988;5.910;2023-11-21T18:23:50;8.10;99.90
47514;DHT22;33951;51.988;5.910;2023-11-21T18:26:30;8.10;99.90
47514;DHT22;33951;51.988;5.910;2023-11-21T18:29:00;8.30;99.90
47514;DHT22;33951;51.988;5.910;2023-11-21T18:31:26;8.30;99.90
47514;DHT22;33951;51.988;5.910;2023-11-21T18:33:54;8.30;99.90
47514;DHT22;33951;51.988;5.910;2023-11-21T18:36:22;8.20;99.90
47514;DHT22;33951;51.988;5.910;2023-11-21T18:42:18;8.20;99.90
47514;DHT22;33951;51.988;5.910;2023-11-21T18:45:10;8.10;99.90
47514;DHT22;33951;51.988;5.910;2023-11-21T18:48:06;8.10;99.90
47514;DHT22;33951;51.988;5.910;2023-11-21T18:58:15;8.00;99.90
47514;DHT22;33951;51.988;5.910;2023-11-21T19:11:02;7.60;99.90
47514;DHT22;33951;51.988;5.910;2023-11-21T19:14:26;7.70;99.90
47514;DHT22;33951;51.988;5.910;2023-11-21T19:17:30;7.70;99.90
47514;DHT22;33951;51.988;5.910;2023-11-21T19:20:21;7.80;99.90
47514;DHT22;33951;51.988;5.910;2023-11-21T19:22:51;7.60;99.90
47514;DHT22;33951;51.988;5.910;2023-11-21T19:28:26;7.60;99.90
47514;DHT22;33951;51.988;5.910;2023-11-21T19:31:03;7.60;99.90
47514;DHT22;33951;51.988;5.910;2023-11-21T19:34:01;7.50;99.90
47514;DHT22;33951;51.988;5.910;2023-11-21T19:36:44;7.50;99.90
47514;DHT22;33951;51.988;5.910;2023-11-21T19:39:14;7.40;99.90
47514;DHT22;33951;51.988;5.910;2023-11-21T19:44:52;7.40;99.90
47514;DHT22;33951;51.988;5.910;2023-11-21T19:47:31;7.50;99.90
47514;DHT22;33951;51.988;5.910;2023-11-21T19:50:17;7.30;99.90
47514;DHT22;33951;51.988;5.910;2023-11-21T19:53:21;7.20;99.90
47514;DHT22;33951;51.988;5.910;2023-11-21T20:01:00;7.00;99.90
47514;DHT22;33951;51.988;5.910;2023-11-21T20:03:28;7.00;99.90
47514;DHT22;33951;51.988;5.910;2023-11-21T20:05:57;7.00;99.90
47514;DHT22;33951;51.988;5.910;2023-11-21T20:08:27;7.00;99.90
